Time;durP1;ratioP1;P1;durP2;ratioP2;P2;SDS_P1;SDS_P2;PMS_P1;PMS_P2;Temp;Humidity;BMP_temperature;BMP_pressure;BME280_temperature;BME280_humidity;BME280_pressure;Samples;Min_cycle;Max_cycle;Signal;HPM_P1;HPM_P2
2022/03/17 00:01:46;;;;;;;24.77;17.93;;;11.20;96.60;;;;;;5036105;28;20045;-74
2022/03/17 00:04:11;;;;;;;27.13;18.93;;;11.20;96.70;;;;;;5003570;28;20055;-74
2022/03/17 00:06:37;;;;;;;23.73;18.87;;;11.20;96.80;;;;;;5054069;28;20045;-74
2022/03/17 00:09:04;;;;;;;25.17;19.37;;;11.10;97.00;;;;;;5036139;28;20052;-75
2022/03/17 00:11:31;;;;;;;23.73;19.13;;;11.10;97.20;;;;;;5054068;28;20049;-74
2022/03/17 00:13:56;;;;;;;22.40;19.17;;;11.20;97.30;;;;;;5036104;28;20405;-74
2022/03/17 00:16:22;;;;;;;24.83;20.17;;;11.20;97.80;;;;;;5035924;28;20363;-74
2022/03/17 00:18:48;;;;;;;22.20;19.80;;;11.10;98.30;;;;;;5053957;28;20417;-74
2022/03/17 00:21:13;;;;;;;28.20;20.23;;;11.10;98.60;;;;;;5053594;28;20041;-74
2022/03/17 00:23:39;;;;;;;24.57;19.23;;;11.10;98.80;;;;;;5036172;28;20144;-74
2022/03/17 00:26:05;;;;;;;23.83;19.57;;;11.10;99.00;;;;;;5035638;28;20132;-74
2022/03/17 00:28:31;;;;;;;24.30;19.63;;;11.10;99.40;;;;;;5019509;28;20053;-74
2022/03/17 00:30:56;;;;;;;22.97;19.57;;;11.00;99.50;;;;;;5053749;28;20131;-74
2022/03/17 00:33:22;;;;;;;23.90;19.37;;;11.00;99.20;;;;;;5053353;28;20106;-74
2022/03/17 00:35:48;;;;;;;23.30;18.57;;;11.10;99.50;;;;;;5035796;28;20033;-74
2022/03/17 00:38:16;;;;;;;25.57;19.90;;;11.10;99.30;;;;;;5035422;28;20041;-74
2022/03/17 00:40:43;;;;;;;23.03;19.30;;;11.10;99.40;;;;;;5036133;28;20388;-74
2022/03/17 00:43:11;;;;;;;24.87;18.67;;;11.00;99.50;;;;;;5053193;28;20283;-74
2022/03/17 00:45:37;;;;;;;25.17;19.47;;;11.00;99.60;;;;;;5035701;28;20381;-74
2022/03/17 00:48:04;;;;;;;26.63;19.43;;;11.10;99.70;;;;;;5035264;28;20290;-74
2022/03/17 00:50:30;;;;;;;23.73;19.63;;;11.10;99.80;;;;;;5053340;28;20275;-74
2022/03/17 00:52:56;;;;;;;23.83;19.97;;;11.20;99.60;;;;;;5035492;28;20280;-74
2022/03/17 00:55:22;;;;;;;23.13;18.40;;;11.20;99.40;;;;;;5034355;28;20315;-74
2022/03/17 00:57:49;;;;;;;23.17;18.20;;;11.10;99.30;;;;;;5035525;28;20276;-74
2022/03/17 01:00:16;;;;;;;24.93;18.47;;;11.10;99.40;;;;;;5035224;28;20303;-74
2022/03/17 01:02:50;;;;;;;23.83;20.37;;;11.20;99.20;;;;;;5053355;28;20334;-74
2022/03/17 01:05:16;;;;;;;23.97;18.67;;;11.20;99.20;;;;;;5052728;28;20775;-74
2022/03/17 01:07:42;;;;;;;23.30;18.87;;;11.20;99.10;;;;;;5035418;28;20368;-74
2022/03/17 01:10:10;;;;;;;24.17;19.50;;;11.20;98.90;;;;;;5052682;28;20053;-74
2022/03/17 01:12:35;;;;;;;21.57;18.37;;;11.20;98.80;;;;;;5052919;28;20372;-74
2022/03/17 01:15:03;;;;;;;22.90;19.17;;;11.10;98.90;;;;;;5052803;28;20315;-74
2022/03/17 01:17:29;;;;;;;22.43;18.93;;;11.10;99.10;;;;;;5018911;28;20049;-74
2022/03/17 01:19:55;;;;;;;23.80;19.30;;;11.20;99.00;;;;;;5035124;28;20298;-73
2022/03/17 01:22:24;;;;;;;24.87;19.00;;;11.20;98.80;;;;;;5052655;28;20053;-74
2022/03/17 01:24:51;;;;;;;22.70;19.30;;;11.20;99.10;;;;;;5052793;28;20358;-74
2022/03/17 01:27:20;;;;;;;23.87;19.00;;;11.10;99.10;;;;;;5034625;28;20620;-74
2022/03/17 01:29:50;;;;;;;21.73;18.57;;;11.20;99.00;;;;;;5052783;28;20276;-74
2022/03/17 01:32:17;;;;;;;23.03;19.00;;;11.10;99.30;;;;;;5052213;28;20319;-74
2022/03/17 01:34:42;;;;;;;23.17;19.67;;;11.10;99.10;;;;;;5035137;28;20299;-74
2022/03/17 01:37:08;;;;;;;22.60;19.73;;;11.10;99.30;;;;;;5034591;28;20282;-75
2022/03/17 01:39:34;;;;;;;23.73;19.97;;;11.10;99.30;;;;;;5034966;28;20049;-74
2022/03/17 01:42:03;;;;;;;23.03;20.10;;;11.10;99.50;;;;;;5034687;28;20051;-75
2022/03/17 01:44:29;;;;;;;24.07;20.17;;;11.10;99.90;;;;;;5052471;28;20107;-74
2022/03/17 01:49:40;;;;;;;23.77;19.83;;;11.10;99.90;;;;;;5052616;28;20132;-75
2022/03/17 01:52:06;;;;;;;25.70;21.87;;;11.00;99.90;;;;;;5052545;28;20458;-75
2022/03/17 01:54:33;;;;;;;24.67;20.30;;;11.00;99.90;;;;;;5034704;28;20334;-75
2022/03/17 01:56:59;;;;;;;24.07;21.47;;;11.00;99.90;;;;;;5052240;28;20636;-74
2022/03/17 01:59:26;;;;;;;26.53;22.97;;;10.90;99.90;;;;;;5034470;28;20333;-75
2022/03/17 02:01:53;;;;;;;24.30;21.37;;;10.90;99.90;;;;;;5052386;28;20124;-75
2022/03/17 02:04:19;;;;;;;25.53;21.73;;;10.80;99.90;;;;;;5052155;28;20303;-75
2022/03/17 02:06:45;;;;;;;25.00;21.80;;;10.70;99.90;;;;;;5035643;28;20299;-75
2022/03/17 02:09:11;;;;;;;25.80;21.63;;;10.80;99.90;;;;;;5038450;28;20136;-75
2022/03/17 02:14:22;;;;;;;25.67;21.85;;;10.70;99.90;;;;;;5037751;28;20064;-75
2022/03/17 02:16:50;;;;;;;28.30;22.90;;;10.70;99.90;;;;;;5038619;28;20049;-74
2022/03/17 02:19:16;;;;;;;25.50;22.00;;;10.70;99.90;;;;;;5055652;28;20838;-75
2022/03/17 02:21:44;;;;;;;24.77;22.13;;;10.70;99.90;;;;;;5038809;28;20337;-74
2022/03/17 02:26:57;;;;;;;26.02;22.60;;;10.70;99.90;;;;;;5038307;28;20310;-74
2022/03/17 02:29:22;;;;;;;25.23;22.53;;;10.70;99.90;;;;;;5038293;28;20469;-75
2022/03/17 02:31:48;;;;;;;25.40;22.70;;;10.70;99.90;;;;;;5038201;28;20279;-75
2022/03/17 02:34:18;;;;;;;27.03;23.27;;;10.70;99.90;;;;;;5055599;28;20045;-75
2022/03/17 02:36:48;;;;;;;24.63;21.93;;;10.70;99.90;;;;;;5055888;28;20282;-75
2022/03/17 02:39:18;;;;;;;26.07;23.30;;;10.70;99.90;;;;;;5055452;28;20283;-75
2022/03/17 02:41:44;;;;;;;24.97;22.27;;;10.70;99.90;;;;;;5055974;28;20358;-74
2022/03/17 02:44:11;;;;;;;27.37;23.67;;;10.70;99.90;;;;;;5037950;28;20366;-74
2022/03/17 02:46:37;;;;;;;26.53;23.60;;;10.70;99.90;;;;;;5055370;28;20464;-75
2022/03/17 02:49:04;;;;;;;27.27;24.07;;;10.70;99.90;;;;;;5037659;28;20771;-74
2022/03/17 02:51:30;;;;;;;26.33;23.53;;;10.70;99.90;;;;;;5037588;28;20358;-74
2022/03/17 02:53:56;;;;;;;27.17;24.20;;;10.70;99.90;;;;;;5037564;28;20780;-74
2022/03/17 02:56:21;;;;;;;27.27;24.17;;;10.70;99.90;;;;;;5055243;28;20503;-75
2022/03/17 02:58:48;;;;;;;25.73;22.93;;;10.70;99.90;;;;;;5055432;28;20283;-75
2022/03/17 03:01:14;;;;;;;29.20;26.07;;;10.70;99.90;;;;;;5037463;28;20041;-77
2022/03/17 03:03:39;;;;;;;27.33;24.23;;;10.80;99.90;;;;;;5055406;28;20623;-75
2022/03/17 03:06:06;;;;;;;29.43;24.67;;;10.80;99.90;;;;;;5055416;28;20041;-75
2022/03/17 03:08:33;;;;;;;29.60;26.07;;;10.80;99.90;;;;;;5020914;28;20053;-75
2022/03/17 03:10:59;;;;;;;29.03;25.93;;;10.80;99.90;;;;;;5055296;28;20326;-75
2022/03/17 03:13:25;;;;;;;31.17;27.20;;;10.90;99.90;;;;;;5054834;28;20303;-75
2022/03/17 03:15:51;;;;;;;34.20;27.23;;;10.90;99.90;;;;;;5054695;28;20053;-75
2022/03/17 03:18:18;;;;;;;30.43;27.13;;;10.90;99.90;;;;;;5036153;28;20345;-76
2022/03/17 03:20:44;;;;;;;31.07;27.87;;;10.90;99.90;;;;;;5037581;28;20107;-74
2022/03/17 03:23:10;;;;;;;30.90;27.50;;;10.90;99.90;;;;;;5055073;28;20276;-72
2022/03/17 03:25:36;;;;;;;32.03;28.67;;;10.90;99.90;;;;;;5037035;28;20410;-73
2022/03/17 03:28:09;;;;;;;34.50;30.80;;;10.90;99.90;;;;;;5054866;28;20711;-73
2022/03/17 03:30:36;;;;;;;32.07;28.57;;;10.80;99.90;;;;;;5020468;28;20436;-73
2022/03/17 03:33:03;;;;;;;39.43;32.83;;;10.70;99.90;;;;;;5054811;28;20352;-72
2022/03/17 03:38:13;;;;;;;37.93;32.50;;;10.60;99.90;;;;;;5037219;28;20310;-72
2022/03/17 03:40:39;;;;;;;39.50;32.83;;;10.60;99.90;;;;;;5054052;28;20768;-72
2022/03/17 03:43:04;;;;;;;39.73;33.97;;;10.50;99.90;;;;;;5054565;28;20057;-72
2022/03/17 03:45:31;;;;;;;36.67;32.00;;;10.50;99.90;;;;;;5054183;28;20036;-72
2022/03/17 03:47:57;;;;;;;41.20;35.37;;;10.50;99.90;;;;;;5037034;28;20130;-72
2022/03/17 03:50:23;;;;;;;40.30;34.80;;;10.40;99.90;;;;;;5036542;28;20283;-72
2022/03/17 03:52:49;;;;;;;40.43;34.60;;;10.40;99.90;;;;;;5054349;28;20122;-72
2022/03/17 03:55:14;;;;;;;39.63;33.93;;;10.30;99.90;;;;;;5054384;28;20319;-71
2022/03/17 03:57:40;;;;;;;42.80;35.10;;;10.30;99.90;;;;;;5036237;28;20139;-72
2022/03/17 04:00:51;;;;;;;41.90;35.00;;;10.30;99.90;;;;;;5036746;28;20048;-72
2022/03/17 04:02:53;;;;;;;40.43;35.37;;;10.30;99.90;;;;;;5036704;28;20053;-72
2022/03/17 04:05:26;;;;;;;44.33;36.70;;;10.20;99.90;;;;;;5036276;28;20319;-72
2022/03/17 04:07:55;;;;;;;42.87;37.37;;;10.20;99.90;;;;;;5036540;28;20292;-72
2022/03/17 04:10:21;;;;;;;44.30;37.30;;;10.20;99.90;;;;;;5053964;28;20284;-74
2022/03/17 04:12:47;;;;;;;43.20;36.83;;;10.20;99.90;;;;;;5053923;28;20283;-72
2022/03/17 04:15:12;;;;;;;46.03;37.83;;;10.20;99.90;;;;;;5036252;28;20317;-72
2022/03/17 04:17:38;;;;;;;50.50;38.77;;;10.20;99.90;;;;;;5053649;28;20451;-72
2022/03/17 04:20:05;;;;;;;52.30;40.67;;;10.10;99.90;;;;;;5036357;28;20450;-72
2022/03/17 04:22:31;;;;;;;49.23;40.53;;;10.10;99.90;;;;;;5053430;28;20045;-72
2022/03/17 04:24:57;;;;;;;48.57;38.70;;;10.10;99.90;;;;;;5054065;28;20293;-71
2022/03/17 04:27:23;;;;;;;36.17;29.50;;;10.10;99.90;;;;;;5053486;28;20299;-72
2022/03/17 04:29:49;;;;;;;19.67;16.27;;;10.10;99.90;;;;;;5053582;28;20477;-72
2022/03/17 04:32:15;;;;;;;17.37;13.37;;;10.10;99.90;;;;;;5036091;28;20493;-72
2022/03/17 04:34:40;;;;;;;14.30;10.33;;;10.00;99.90;;;;;;5053427;28;20060;-72
2022/03/17 04:37:06;;;;;;;14.73;10.57;;;9.90;99.90;;;;;;5035753;28;20072;-72
2022/03/17 04:39:32;;;;;;;14.03;10.00;;;9.80;99.90;;;;;;5053141;28;20045;-72
2022/03/17 04:41:58;;;;;;;11.70;9.20;;;9.70;99.90;;;;;;5053504;28;20080;-72
2022/03/17 04:44:24;;;;;;;12.03;9.13;;;9.70;99.90;;;;;;5053266;28;20775;-74
2022/03/17 04:46:50;;;;;;;14.60;10.17;;;9.60;99.90;;;;;;5035781;28;20048;-72
2022/03/17 04:49:16;;;;;;;11.63;9.30;;;9.60;99.90;;;;;;5052994;28;20279;-72
2022/03/17 04:51:42;;;;;;;10.57;8.37;;;9.50;99.90;;;;;;5035398;28;20548;-72
2022/03/17 04:54:08;;;;;;;13.43;9.27;;;9.50;99.90;;;;;;5053463;28;20433;-72
2022/03/17 04:56:34;;;;;;;12.70;8.40;;;9.50;99.90;;;;;;5052994;28;20060;-72
2022/03/17 04:58:59;;;;;;;11.37;7.53;;;9.40;99.90;;;;;;5053296;28;20060;-72
2022/03/17 05:01:25;;;;;;;11.43;7.93;;;9.50;99.90;;;;;;5052918;28;20052;-74
2022/03/17 05:03:51;;;;;;;10.70;7.17;;;9.40;99.90;;;;;;5053373;28;20127;-72
2022/03/17 05:06:18;;;;;;;13.90;8.13;;;9.40;99.90;;;;;;5053155;28;20041;-72
2022/03/17 05:08:43;;;;;;;12.27;6.87;;;9.40;99.90;;;;;;5035220;28;20386;-72
2022/03/17 05:11:10;;;;;;;11.97;7.80;;;9.30;99.90;;;;;;5053130;28;20370;-72
2022/03/17 05:13:37;;;;;;;12.33;7.70;;;9.30;99.90;;;;;;5052748;28;20086;-72
2022/03/17 05:16:04;;;;;;;14.47;8.33;;;9.30;99.90;;;;;;5052981;28;20300;-72
2022/03/17 05:18:31;;;;;;;15.23;8.77;;;;;;;;;;5052695;28;20326;-72
2022/03/17 05:20:56;;;;;;;14.63;9.23;;;9.20;99.90;;;;;;5052906;28;20287;-72
2022/03/17 05:23:22;;;;;;;19.27;10.33;;;9.20;99.90;;;;;;5035064;28;20290;-72
2022/03/17 05:25:50;;;;;;;22.00;10.27;;;9.20;99.90;;;;;;5052516;28;20426;-72
2022/03/17 05:28:16;;;;;;;19.77;10.90;;;9.10;99.90;;;;;;5035173;28;20435;-72
2022/03/17 05:30:43;;;;;;;23.23;11.17;;;9.10;99.90;;;;;;5034618;28;20279;-72
2022/03/17 05:33:11;;;;;;;22.80;9.53;;;9.10;99.90;;;;;;5052648;28;20362;-72
2022/03/17 05:35:38;;;;;;;20.00;9.77;;;9.10;99.90;;;;;;5052406;28;20677;-73
2022/03/17 05:38:04;;;;;;;21.67;8.00;;;9.10;99.90;;;;;;5035240;28;20306;-72
2022/03/17 05:40:30;;;;;;;26.30;8.17;;;9.00;99.90;;;;;;5034801;28;20462;-74
2022/03/17 05:42:58;;;;;;;20.90;6.73;;;9.00;99.90;;;;;;5034608;28;20049;-72
2022/03/17 05:45:26;;;;;;;22.40;7.67;;;9.00;99.90;;;;;;5034856;28;20088;-72
2022/03/17 05:47:54;;;;;;;20.00;6.13;;;9.00;99.90;;;;;;5052261;28;20276;-73
2022/03/17 05:50:22;;;;;;;16.73;5.73;;;9.00;99.90;;;;;;5052762;28;20674;-73
2022/03/17 05:52:49;;;;;;;17.70;4.80;;;9.00;99.90;;;;;;5051648;28;20834;-73
2022/03/17 05:55:17;;;;;;;14.60;4.90;;;8.90;99.90;;;;;;5034873;28;20284;-72
2022/03/17 05:57:45;;;;;;;19.40;4.27;;;8.90;99.90;;;;;;5052152;28;20272;-72
2022/03/17 06:00:15;;;;;;;17.80;5.00;;;8.90;99.90;;;;;;5052535;28;20751;-72
2022/03/17 06:02:40;;;;;;;17.93;4.30;;;8.90;99.90;;;;;;5052193;28;20284;-73
2022/03/17 06:05:08;;;;;;;15.60;4.50;;;8.80;99.90;;;;;;5052439;28;20280;-72
2022/03/17 06:07:37;;;;;;;19.57;3.97;;;8.80;99.90;;;;;;5052008;28;20037;-73
2022/03/17 06:10:05;;;;;;;21.17;5.33;;;8.80;99.90;;;;;;5034731;28;20288;-72
2022/03/17 06:12:31;;;;;;;16.07;4.23;;;8.80;99.90;;;;;;5018531;28;20279;-72
2022/03/17 06:14:57;;;;;;;12.50;3.33;;;8.80;99.90;;;;;;5051816;28;20298;-72
2022/03/17 06:17:23;;;;;;;17.47;3.87;;;8.80;99.90;;;;;;5052383;28;20044;-72
2022/03/17 06:19:50;;;;;;;14.93;4.10;;;8.80;99.90;;;;;;5052125;28;20760;-72
2022/03/17 06:22:16;;;;;;;14.67;4.20;;;8.80;99.90;;;;;;5034742;28;20345;-72
2022/03/17 06:24:41;;;;;;;17.47;4.27;;;8.70;99.90;;;;;;5051987;28;20366;-72
2022/03/17 06:27:07;;;;;;;13.27;2.60;;;8.70;99.90;;;;;;5034402;28;20442;-72
2022/03/17 06:29:32;;;;;;;19.30;3.57;;;8.70;99.90;;;;;;5052297;28;20124;-72
2022/03/17 06:31:58;;;;;;;11.47;2.60;;;8.70;99.90;;;;;;5052342;28;20182;-72
2022/03/17 06:34:24;;;;;;;13.90;2.53;;;8.70;99.90;;;;;;5052137;28;20044;-72
2022/03/17 06:36:50;;;;;;;12.53;2.47;;;8.70;99.90;;;;;;5033873;28;20063;-72
2022/03/17 06:39:15;;;;;;;10.53;2.43;;;8.70;99.90;;;;;;5052398;28;20064;-72
2022/03/17 06:41:41;;;;;;;13.87;3.27;;;8.70;99.90;;;;;;5052192;28;20045;-72
2022/03/17 06:44:07;;;;;;;16.53;2.50;;;8.70;99.90;;;;;;5052087;28;20045;-72
2022/03/17 06:46:32;;;;;;;12.13;3.03;;;8.70;99.90;;;;;;5051654;28;20044;-72
2022/03/17 06:48:58;;;;;;;18.47;2.77;;;8.70;99.90;;;;;;5051784;28;20048;-72
2022/03/17 06:51:24;;;;;;;15.57;3.13;;;8.70;99.90;;;;;;5052092;28;20048;-72
2022/03/17 06:53:49;;;;;;;13.50;3.00;;;8.60;99.90;;;;;;5052580;28;20052;-72
2022/03/17 06:56:15;;;;;;;15.67;3.73;;;8.60;99.90;;;;;;5021638;28;20107;-72
2022/03/17 06:58:41;;;;;;;21.47;3.23;;;8.60;99.90;;;;;;5055278;28;20049;-72
2022/03/17 07:01:06;;;;;;;17.07;3.30;;;8.60;99.90;;;;;;5055449;28;20084;-72
2022/03/17 07:03:32;;;;;;;15.37;2.77;;;8.70;99.90;;;;;;5037877;28;20107;-72
2022/03/17 07:05:58;;;;;;;12.77;2.83;;;8.70;99.90;;;;;;5037127;28;20041;-72
2022/03/17 07:08:23;;;;;;;15.93;3.17;;;8.70;99.90;;;;;;5037811;28;20045;-72
2022/03/17 07:10:49;;;;;;;12.87;2.50;;;8.70;99.90;;;;;;5020749;28;20473;-72
2022/03/17 07:13:15;;;;;;;14.50;2.63;;;8.70;99.90;;;;;;5037773;28;20057;-72
2022/03/17 07:15:40;;;;;;;18.13;3.10;;;8.70;99.90;;;;;;5036952;28;20064;-72
2022/03/17 07:18:06;;;;;;;15.20;2.60;;;8.70;99.90;;;;;;5055412;28;20131;-72
2022/03/17 07:20:32;;;;;;;18.50;2.90;;;8.70;99.90;;;;;;5037543;28;20045;-72
2022/03/17 07:22:57;;;;;;;13.77;2.37;;;8.70;99.90;;;;;;5054780;28;20064;-72
2022/03/17 07:25:24;;;;;;;17.00;2.77;;;8.70;99.90;;;;;;5037375;28;20443;-72
2022/03/17 07:27:49;;;;;;;17.60;2.87;;;8.60;99.90;;;;;;5054599;28;20088;-72
2022/03/17 07:30:20;;;;;;;19.43;3.00;;;8.60;99.90;;;;;;5020943;28;20326;-72
2022/03/17 07:32:52;;;;;;;15.60;3.23;;;8.60;99.90;;;;;;5054703;28;20081;-72
2022/03/17 07:35:18;;;;;;;17.20;3.07;;;8.60;99.90;;;;;;5055127;28;20283;-72
2022/03/17 07:37:45;;;;;;;19.10;2.80;;;8.60;99.90;;;;;;5054287;28;20279;-73
2022/03/17 07:40:12;;;;;;;16.43;3.20;;;8.60;99.90;;;;;;5054736;28;20315;-72
2022/03/17 07:42:38;;;;;;;14.97;3.17;;;8.60;99.90;;;;;;5055068;28;20287;-72
2022/03/17 07:45:05;;;;;;;19.50;2.80;;;8.60;99.90;;;;;;5036773;28;20627;-72
2022/03/17 07:47:32;;;;;;;17.43;3.40;;;8.60;99.90;;;;;;5054548;28;20081;-73
2022/03/17 07:50:00;;;;;;;17.73;2.90;;;8.60;99.90;;;;;;5036174;28;20809;-72
2022/03/17 07:52:27;;;;;;;20.23;4.23;;;8.60;99.90;;;;;;5037122;28;20345;-72
2022/03/17 07:54:52;;;;;;;23.27;3.37;;;8.60;99.90;;;;;;5054233;28;20283;-73
2022/03/17 07:57:19;;;;;;;17.00;3.00;;;8.60;99.90;;;;;;5054425;28;20821;-73
2022/03/17 07:59:45;;;;;;;14.60;2.87;;;8.60;99.90;;;;;;5054164;28;20114;-74
2022/03/17 08:02:10;;;;;;;16.63;2.87;;;8.60;99.90;;;;;;5054402;28;20332;-73
2022/03/17 08:04:37;;;;;;;17.43;3.37;;;8.60;99.90;;;;;;5053885;28;20358;-73
2022/03/17 08:07:03;;;;;;;14.87;3.10;;;8.70;99.90;;;;;;5053915;28;20511;-74
2022/03/17 08:09:29;;;;;;;16.37;2.93;;;8.70;99.90;;;;;;5020168;28;20766;-73
2022/03/17 08:11:56;;;;;;;14.50;2.60;;;8.70;99.90;;;;;;5019719;28;20318;-74
2022/03/17 08:14:22;;;;;;;15.00;2.97;;;8.70;99.90;;;;;;5019996;28;20299;-74
2022/03/17 08:16:48;;;;;;;19.63;3.07;;;8.60;99.90;;;;;;5053417;28;20292;-73
2022/03/17 08:19:14;;;;;;;17.17;2.90;;;8.60;99.90;;;;;;5054115;28;20056;-73
2022/03/17 08:21:40;;;;;;;21.93;3.30;;;8.60;99.90;;;;;;5036326;28;20056;-74
2022/03/17 08:24:07;;;;;;;16.53;3.13;;;8.60;99.90;;;;;;5035957;28;20307;-74
2022/03/17 08:26:33;;;;;;;14.17;3.40;;;8.60;99.90;;;;;;5053837;28;20593;-74
2022/03/17 08:29:00;;;;;;;16.17;3.20;;;8.60;99.90;;;;;;5053489;28;20283;-74
2022/03/17 08:31:27;;;;;;;14.87;5.10;;;8.60;99.90;;;;;;5053755;28;20279;-74
2022/03/17 08:33:56;;;;;;;12.80;2.80;;;8.60;99.90;;;;;;5053411;28;20283;-74
2022/03/17 08:36:23;;;;;;;15.63;3.50;;;8.60;99.90;;;;;;5036408;28;20315;-74
2022/03/17 08:38:51;;;;;;;13.63;3.07;;;8.60;99.90;;;;;;5053283;28;20288;-74
2022/03/17 08:41:17;;;;;;;22.33;3.20;;;8.70;99.90;;;;;;5054035;28;20285;-74
2022/03/17 08:43:43;;;;;;;19.37;4.13;;;8.80;99.90;;;;;;5053493;28;20291;-74
2022/03/17 08:51:37;;;;;;;15.03;2.90;;;8.80;99.90;;;;;;5035991;28;20426;-74
2022/03/17 08:54:03;;;;;;;14.67;2.87;;;8.70;99.90;;;;;;5053181;28;20399;-74
2022/03/17 08:56:29;;;;;;;17.70;4.10;;;8.70;99.90;;;;;;5035553;28;20041;-74
2022/03/17 08:58:55;;;;;;;12.73;2.90;;;8.70;99.90;;;;;;5035292;28;20326;-74
2022/03/17 09:01:21;;;;;;;25.67;2.97;;;8.70;99.90;;;;;;5035616;28;20048;-73
2022/03/17 09:03:47;;;;;;;18.57;3.40;;;8.80;99.90;;;;;;5019118;28;20044;-74
2022/03/17 09:06:12;;;;;;;16.53;2.70;;;8.90;99.90;;;;;;5035384;28;20291;-67
2022/03/17 09:08:41;;;;;;;18.30;2.80;;;9.10;99.90;;;;;;5053124;28;20333;-72
2022/03/17 09:11:08;;;;;;;14.97;2.83;;;9.30;99.90;;;;;;5035214;28;20048;-73
2022/03/17 09:13:34;;;;;;;15.47;3.07;;;9.40;99.90;;;;;;5053292;28;20356;-72
2022/03/17 09:16:00;;;;;;;18.20;4.00;;;9.50;99.90;;;;;;5051594;28;20785;-72
2022/03/17 09:18:27;;;;;;;11.80;2.50;;;9.50;99.90;;;;;;5052818;28;20612;-72
2022/03/17 09:20:53;;;;;;;11.60;2.37;;;9.60;99.90;;;;;;5052613;28;20295;-73
2022/03/17 09:23:19;;;;;;;11.10;2.53;;;9.60;99.90;;;;;;5052964;28;20279;-73
2022/03/17 09:25:45;;;;;;;10.90;2.80;;;9.70;99.90;;;;;;5052731;28;20472;-73
2022/03/17 09:28:11;;;;;;;19.27;3.70;;;9.80;99.90;;;;;;5052614;28;20276;-72
2022/03/17 09:30:37;;;;;;;9.37;2.33;;;10.00;99.90;;;;;;5053360;28;20280;-80
2022/03/17 09:33:05;;;;;;;13.47;2.63;;;10.00;99.90;;;;;;5021024;28;20413;-72
2022/03/17 09:35:31;;;;;;;12.07;2.30;;;10.00;99.90;;;;;;5052834;28;20041;-72
2022/03/17 09:37:57;;;;;;;12.00;2.90;;;;;;;;;;5034666;28;20366;-72
2022/03/17 09:40:23;;;;;;;15.17;2.90;;;10.10;99.90;;;;;;5034992;28;20299;-72
2022/03/17 09:42:49;;;;;;;13.00;3.00;;;10.10;99.90;;;;;;5035057;28;20275;-73
2022/03/17 09:45:15;;;;;;;12.80;2.80;;;10.10;99.90;;;;;;5034735;28;20048;-72
2022/03/17 09:47:44;;;;;;;13.77;3.37;;;10.10;99.90;;;;;;5035011;28;20041;-72
2022/03/17 09:50:13;;;;;;;10.77;2.77;;;10.10;99.90;;;;;;5034392;28;20049;-72
2022/03/17 09:52:41;;;;;;;19.03;3.07;;;10.10;99.90;;;;;;5035136;28;20667;-72
2022/03/17 09:55:10;;;;;;;16.57;2.70;;;10.10;99.90;;;;;;5034526;28;20283;-72
2022/03/17 09:57:38;;;;;;;12.47;2.70;;;10.20;99.90;;;;;;5035106;28;20295;-72
2022/03/17 10:00:05;;;;;;;12.90;3.10;;;10.20;99.90;;;;;;5034716;28;20291;-72
2022/03/17 10:02:32;;;;;;;14.47;2.73;;;10.20;99.90;;;;;;5052554;28;20295;-75
2022/03/17 10:04:58;;;;;;;14.57;3.60;;;10.30;99.90;;;;;;5034454;28;20298;-74
2022/03/17 10:07:24;;;;;;;16.13;3.70;;;10.30;99.90;;;;;;5034721;28;20306;-73
2022/03/17 10:09:50;;;;;;;20.37;4.37;;;10.40;99.90;;;;;;5018425;28;20290;-71
2022/03/17 10:12:20;;;;;;;13.73;3.83;;;10.40;99.90;;;;;;5034666;28;20052;-72
2022/03/17 10:14:49;;;;;;;17.33;4.03;;;10.30;99.90;;;;;;5034378;28;20325;-72
2022/03/17 10:17:31;;;;;;;14.67;2.97;;;10.30;99.90;;;;;;5052182;28;20294;-67
2022/03/17 10:20:18;;;;;;;17.67;3.10;;;10.40;99.90;;;;;;5034476;28;20345;-69
2022/03/17 10:22:51;;;;;;;12.70;2.50;;;10.50;99.90;;;;;;5018310;28;20292;-77
2022/03/17 10:25:20;;;;;;;14.77;2.80;;;10.60;99.90;;;;;;5051728;28;20325;-77
2022/03/17 10:27:49;;;;;;;15.57;3.10;;;10.60;99.90;;;;;;5035640;28;20314;-81
2022/03/17 10:30:34;;;;;;;12.50;3.20;;;10.70;99.90;;;;;;5038164;28;21347;-79
2022/03/17 10:33:03;;;;;;;17.00;3.42;;;10.80;99.90;;;;;;5055883;28;20284;-81
2022/03/17 10:35:35;;;;;;;13.10;3.00;;;10.80;99.90;;;;;;5038689;28;20045;-83
2022/03/17 10:38:17;;;;;;;12.53;3.17;;;10.80;99.80;;;;;;5055881;28;20280;-86
2022/03/17 10:40:58;;;;;;;14.87;2.80;;;10.80;99.50;;;;;;5055960;28;20280;-77
2022/03/17 10:43:25;;;;;;;17.10;2.97;;;10.70;99.40;;;;;;5021934;28;20314;-75
2022/03/17 10:46:07;;;;;;;10.80;2.23;;;10.60;99.20;;;;;;5055722;28;20284;-84
2022/03/17 10:48:34;;;;;;;16.80;3.17;;;10.70;98.10;;;;;;5021606;28;20357;-80
2022/03/17 10:50:59;;;;;;;18.83;3.20;;;10.70;98.90;;;;;;5055458;28;20272;-84
2022/03/17 10:53:30;;;;;;;13.13;2.77;;;10.70;98.90;;;;;;5055549;28;20279;-81
2022/03/17 10:56:12;;;;;;;14.53;3.00;;;10.70;98.30;;;;;;5005520;28;20101;-81
2022/03/17 10:58:46;;;;;;;13.73;3.00;;;10.70;98.00;;;;;;5055388;28;20775;-72
2022/03/17 11:01:11;;;;;;;13.50;2.73;;;10.70;97.30;;;;;;5037473;28;20341;-72
2022/03/17 11:03:38;;;;;;;13.57;3.00;;;10.70;97.70;;;;;;5055499;28;20619;-81
2022/03/17 11:06:06;;;;;;;10.93;2.30;;;10.70;97.60;;;;;;5037425;28;20048;-78
2022/03/17 11:08:32;;;;;;;15.10;2.60;;;10.70;97.10;;;;;;5021064;28;20775;-75
2022/03/17 11:10:58;;;;;;;14.07;2.77;;;10.70;96.90;;;;;;5055370;28;20313;-76
2022/03/17 11:13:24;;;;;;;12.60;3.00;;;10.70;97.00;;;;;;5037393;28;20287;-78
2022/03/17 11:16:08;;;;;;;13.50;3.00;;;10.70;96.90;;;;;;5033957;28;20057;-77
2022/03/17 11:18:40;;;;;;;13.53;3.53;;;10.70;96.10;;;;;;5034141;28;20783;-78
2022/03/17 11:21:13;;;;;;;10.57;2.73;;;10.70;96.50;;;;;;5035023;28;20280;-78
2022/03/17 11:23:56;;;;;;;13.73;3.47;;;10.70;96.60;;;;;;5034254;28;20296;-68
2022/03/17 11:26:44;;;;;;;10.27;2.77;;;10.80;94.50;;;;;;5033687;28;20312;-69
2022/03/17 11:29:18;;;;;;;19.70;2.97;;;10.70;94.90;;;;;;5034144;28;20284;-82
2022/03/17 11:31:56;;;;;;;16.40;2.77;;;10.70;95.30;;;;;;5034949;28;20790;-81
2022/03/17 11:34:43;;;;;;;9.67;2.60;;;10.70;95.50;;;;;;5033736;28;20296;-81
2022/03/17 11:37:18;;;;;;;11.43;2.87;;;10.70;94.50;;;;;;5033991;28;20387;-80
2022/03/17 11:40:08;;;;;;;12.25;2.75;;;10.70;94.90;;;;;;5033333;28;20296;-80
2022/03/17 11:42:41;;;;;;;12.90;2.50;;;10.70;95.10;;;;;;5023925;28;20520;-79
2022/03/17 11:45:09;;;;;;;16.37;3.70;;;10.70;95.00;;;;;;5016801;28;20290;-72
2022/03/17 11:47:39;;;;;;;14.37;2.57;;;10.70;94.30;;;;;;5033485;28;20340;-72
2022/03/17 11:50:28;;;;;;;16.37;2.73;;;10.60;94.30;;;;;;5033393;28;20329;-73
2022/03/17 11:53:04;;;;;;;17.03;3.63;;;10.70;93.70;;;;;;5034670;28;20634;-72
2022/03/17 11:55:48;;;;;;;12.50;2.77;;;10.60;94.00;;;;;;5033365;28;20299;-72
2022/03/17 11:58:33;;;;;;;13.13;3.50;;;10.60;94.30;;;;;;5033173;28;20282;-72
2022/03/17 12:01:31;;;;;;;14.45;2.75;;;10.70;94.00;;;;;;5034700;28;20288;-72
2022/03/17 12:04:04;;;;;;;13.93;2.87;;;10.60;94.30;;;;;;5034508;28;20383;-72
2022/03/17 12:06:31;;;;;;;16.17;2.70;;;10.60;94.90;;;;;;5034538;28;20300;-78
2022/03/17 12:09:04;;;;;;;14.87;3.00;;;10.60;94.90;;;;;;5033466;28;20296;-72
2022/03/17 12:11:36;;;;;;;12.23;2.43;;;10.60;94.50;;;;;;5034172;28;20299;-82
2022/03/17 12:14:22;;;;;;;11.03;2.50;;;10.50;94.60;;;;;;5033071;28;20292;-72
2022/03/17 12:16:56;;;;;;;13.30;2.60;;;10.50;94.80;;;;;;5051217;28;20349;-72
2022/03/17 12:19:31;;;;;;;12.73;3.23;;;10.50;95.20;;;;;;5053814;28;20294;-73
2022/03/17 12:22:04;;;;;;;15.45;2.75;;;10.50;94.90;;;;;;5036266;28;20279;-72
2022/03/17 12:24:57;;;;;;;13.00;2.13;;;10.70;95.10;;;;;;5053569;28;20092;-73
2022/03/17 12:27:37;;;;;;;14.90;3.97;;;10.60;95.00;;;;;;5035704;28;20335;-72
2022/03/17 12:30:14;;;;;;;14.43;3.37;;;10.60;95.10;;;;;;5019993;28;20298;-72
2022/03/17 12:32:41;;;;;;;10.27;2.60;;;10.70;95.20;;;;;;5036541;28;20295;-72
2022/03/17 12:35:09;;;;;;;12.90;2.70;;;10.70;94.10;;;;;;5053755;28;20291;-72
2022/03/17 12:37:36;;;;;;;15.67;2.70;;;10.70;93.20;;;;;;5035912;28;20801;-72
2022/03/17 12:40:07;;;;;;;14.83;2.97;;;10.60;93.30;;;;;;5035893;28;20635;-73
2022/03/17 12:42:41;;;;;;;10.23;2.40;;;10.60;93.50;;;;;;5035753;28;20763;-72
2022/03/17 12:45:13;;;;;;;15.23;2.50;;;10.60;93.50;;;;;;5019521;28;20323;-72
2022/03/17 12:47:41;;;;;;;14.47;3.20;;;10.60;93.00;;;;;;5053459;28;20359;-72
2022/03/17 12:50:13;;;;;;;14.13;2.70;;;10.60;93.40;;;;;;5053466;28;20283;-72
2022/03/17 12:52:42;;;;;;;15.67;2.80;;;10.60;92.70;;;;;;5035884;28;20286;-72
2022/03/17 12:55:09;;;;;;;13.47;2.30;;;10.60;92.60;;;;;;5035830;28;20332;-72
2022/03/17 12:57:37;;;;;;;16.13;2.90;;;10.60;92.30;;;;;;5052917;28;20635;-72
2022/03/17 13:00:05;;;;;;;10.67;1.70;;;10.60;92.10;;;;;;5035830;28;20290;-72